Time;durP1;ratioP1;P1;durP2;ratioP2;P2;SDS_P1;SDS_P2;PMS_P1;PMS_P2;Temp;Humidity;BMP_temperature;BMP_pressure;BME280_temperature;BME280_humidity;BME280_pressure;Samples;Min_cycle;Max_cycle;Signal;HPM_P1;HPM_P2
2021/12/04 00:01:12;;;;;;;0.70;0.50;;;4.60;99.90;;;;;;5032844;28;20521;-70
2021/12/04 00:03:39;;;;;;;0.70;0.50;;;4.60;99.90;;;;;;5031653;28;20442;-71
2021/12/04 00:06:22;;;;;;;0.70;0.40;;;4.60;99.90;;;;;;5032662;28;20622;-71
2021/12/04 00:08:47;;;;;;;0.70;0.50;;;4.70;99.90;;;;;;5032502;28;20457;-70
2021/12/04 00:11:14;;;;;;;0.70;0.50;;;4.70;99.90;;;;;;5032536;28;20430;-70
2021/12/04 00:13:40;;;;;;;0.70;0.50;;;4.70;99.90;;;;;;5032628;28;20156;-70
2021/12/04 00:16:05;;;;;;;0.67;0.40;;;4.70;99.90;;;;;;5032387;28;20410;-71
2021/12/04 00:18:31;;;;;;;0.70;0.43;;;4.70;99.90;;;;;;5032584;28;20167;-70
2021/12/04 00:20:56;;;;;;;0.70;0.50;;;4.70;99.90;;;;;;5033080;28;20253;-71
2021/12/04 00:23:22;;;;;;;0.70;0.40;;;4.80;99.90;;;;;;5034688;28;20718;-71
2021/12/04 00:25:48;;;;;;;0.70;0.50;;;4.80;99.90;;;;;;5034767;28;20164;-71
2021/12/04 00:28:13;;;;;;;0.70;0.70;;;4.80;99.90;;;;;;5034175;28;20195;-70
2021/12/04 00:30:39;;;;;;;0.70;0.50;;;4.90;99.90;;;;;;5034227;28;20182;-71
2021/12/04 00:33:12;;;;;;;0.70;0.50;;;4.90;99.90;;;;;;5032381;28;20178;-71
2021/12/04 00:35:46;;;;;;;0.70;0.50;;;4.90;99.90;;;;;;5032135;28;20171;-72
2021/12/04 00:49:12;;;;;;;0.70;0.50;;;4.90;99.90;;;;;;4971167;28;20549;-72
2021/12/04 00:51:41;;;;;;;0.70;0.50;;;5.00;99.90;;;;;;5019727;28;20484;-72
2021/12/04 00:54:10;;;;;;;0.70;0.40;;;5.00;99.90;;;;;;5031981;28;20418;-72
2021/12/04 00:56:37;;;;;;;0.70;0.40;;;4.90;99.90;;;;;;5031933;28;20444;-72
2021/12/04 00:59:03;;;;;;;0.70;0.50;;;4.90;99.90;;;;;;5032814;28;20408;-72
2021/12/04 01:01:29;;;;;;;1.53;1.43;;;5.00;99.90;;;;;;5033745;28;20475;-72
2021/12/04 01:03:55;;;;;;;0.70;0.43;;;5.00;99.90;;;;;;5033398;28;20409;-71
2021/12/04 01:06:21;;;;;;;0.70;0.47;;;5.00;99.90;;;;;;5031730;28;20409;-71
2021/12/04 01:08:46;;;;;;;0.70;0.40;;;5.00;99.90;;;;;;5032193;28;20211;-72
2021/12/04 01:11:12;;;;;;;0.70;0.50;;;5.00;99.90;;;;;;5033724;28;20183;-71
2021/12/04 01:13:37;;;;;;;0.70;0.40;;;5.10;99.90;;;;;;5033290;28;20262;-72
2021/12/04 01:16:03;;;;;;;0.70;0.50;;;5.00;99.90;;;;;;5033163;28;20668;-72
2021/12/04 01:18:29;;;;;;;0.70;0.50;;;5.00;99.90;;;;;;5033837;28;20183;-72
2021/12/04 01:20:55;;;;;;;0.70;0.50;;;5.00;99.90;;;;;;5033508;28;20433;-72
2021/12/04 01:23:20;;;;;;;0.60;0.50;;;4.90;99.90;;;;;;5033973;28;20629;-72
2021/12/04 01:25:46;;;;;;;0.70;0.60;;;4.90;99.90;;;;;;5033315;28;20171;-71
2021/12/04 01:28:11;;;;;;;0.70;0.50;;;4.90;99.90;;;;;;5033709;28;20256;-71
2021/12/04 01:30:37;;;;;;;0.70;0.50;;;4.90;99.90;;;;;;5032177;28;20278;-72
2021/12/04 01:33:03;;;;;;;0.70;0.50;;;4.90;99.90;;;;;;5033681;28;20175;-72
2021/12/04 01:35:29;;;;;;;0.70;0.47;;;4.90;99.90;;;;;;5048310;28;20425;-71
2021/12/04 01:37:55;;;;;;;0.70;0.40;;;4.90;99.90;;;;;;5032095;28;20422;-71
2021/12/04 01:40:21;;;;;;;0.70;0.50;;;4.90;99.90;;;;;;5033436;28;20441;-71
2021/12/04 01:42:47;;;;;;;0.70;0.40;;;4.90;99.90;;;;;;5033197;28;20818;-72
2021/12/04 01:45:16;;;;;;;0.70;0.40;;;4.90;99.90;;;;;;5033360;28;20406;-72
2021/12/04 01:47:41;;;;;;;0.70;0.50;;;4.80;99.90;;;;;;5033567;28;20454;-72
2021/12/04 01:50:08;;;;;;;0.70;0.47;;;4.70;99.90;;;;;;5033115;28;20822;-71
2021/12/04 01:52:33;;;;;;;0.70;0.50;;;4.70;99.90;;;;;;5033265;28;20247;-72
2021/12/04 01:54:59;;;;;;;0.70;0.50;;;4.80;99.90;;;;;;5033198;28;20932;-71
2021/12/04 01:57:25;;;;;;;0.60;0.40;;;4.60;99.90;;;;;;5033321;28;20183;-71
2021/12/04 01:59:51;;;;;;;0.70;0.50;;;4.60;99.90;;;;;;5036836;28;20258;-73
2021/12/04 02:02:17;;;;;;;0.70;0.40;;;4.60;99.90;;;;;;5037249;28;20441;-71
2021/12/04 02:04:43;;;;;;;0.70;0.43;;;4.60;99.90;;;;;;5036412;28;20915;-72
2021/12/04 02:07:10;;;;;;;0.70;0.50;;;4.50;99.90;;;;;;5037562;28;20464;-71
2021/12/04 02:09:36;;;;;;;0.67;0.50;;;4.40;99.90;;;;;;5037851;28;20168;-71
2021/12/04 02:12:05;;;;;;;0.60;0.40;;;4.40;99.90;;;;;;5036772;28;20426;-71
2021/12/04 02:14:36;;;;;;;0.70;0.40;;;4.40;99.90;;;;;;5037067;28;20410;-71
2021/12/04 02:17:03;;;;;;;0.60;0.40;;;4.40;99.90;;;;;;5052059;28;20421;-72
2021/12/04 02:19:29;;;;;;;0.70;0.57;;;4.40;99.90;;;;;;5037011;28;20454;-72
2021/12/04 02:21:55;;;;;;;0.67;0.50;;;4.50;99.90;;;;;;5035827;28;20449;-71
2021/12/04 02:24:21;;;;;;;0.60;0.40;;;4.40;99.90;;;;;;5036767;28;20437;-72
2021/12/04 02:26:48;;;;;;;0.63;0.50;;;4.30;99.90;;;;;;5036318;28;20410;-72
2021/12/04 02:29:14;;;;;;;0.70;0.50;;;4.30;99.90;;;;;;5036925;28;20564;-71
2021/12/04 02:31:45;;;;;;;0.67;0.50;;;4.30;99.90;;;;;;5036491;28;20781;-71
2021/12/04 02:34:10;;;;;;;0.60;0.50;;;4.30;99.90;;;;;;5036785;28;20409;-71
2021/12/04 02:36:36;;;;;;;0.60;0.40;;;4.30;99.90;;;;;;5036535;28;20490;-71
2021/12/04 02:39:02;;;;;;;0.60;0.40;;;4.30;99.90;;;;;;5036432;28;20195;-71
2021/12/04 02:41:28;;;;;;;0.60;0.40;;;4.20;99.90;;;;;;5036557;28;20179;-71
2021/12/04 02:43:53;;;;;;;0.60;0.50;;;4.30;99.90;;;;;;5068638;28;20942;-71
2021/12/04 02:46:19;;;;;;;1.00;0.80;;;4.30;99.90;;;;;;5035901;28;20160;-72
2021/12/04 02:48:47;;;;;;;1.07;0.80;;;4.20;99.90;;;;;;5035937;28;20210;-72
2021/12/04 02:51:15;;;;;;;0.60;0.50;;;4.30;99.90;;;;;;5034725;28;20187;-71
2021/12/04 02:53:41;;;;;;;0.60;0.50;;;4.30;99.90;;;;;;5036157;28;20448;-71
2021/12/04 02:56:06;;;;;;;0.60;0.40;;;4.40;99.90;;;;;;5035706;28;20635;-71
2021/12/04 02:58:34;;;;;;;0.63;0.40;;;4.30;99.90;;;;;;5036112;28;20199;-71
2021/12/04 03:01:01;;;;;;;0.70;0.50;;;4.20;99.90;;;;;;5035008;28;21025;-72
2021/12/04 03:03:27;;;;;;;1.17;0.93;;;4.20;99.90;;;;;;5036507;28;20939;-71
2021/12/04 03:05:53;;;;;;;0.63;0.47;;;4.20;99.90;;;;;;5067678;28;20415;-72
2021/12/04 03:08:19;;;;;;;0.60;0.40;;;4.20;99.90;;;;;;5035992;28;20449;-72
2021/12/04 03:10:47;;;;;;;0.60;0.50;;;4.20;99.90;;;;;;5050647;28;20439;-71
2021/12/04 03:13:14;;;;;;;0.70;0.43;;;4.30;99.90;;;;;;5035681;28;20219;-72
2021/12/04 03:15:44;;;;;;;0.70;0.50;;;4.20;99.90;;;;;;5035354;28;20411;-70
2021/12/04 03:18:10;;;;;;;0.70;0.40;;;4.10;99.90;;;;;;5036042;28;20415;-71
2021/12/04 03:20:41;;;;;;;0.60;0.50;;;4.20;99.90;;;;;;5035792;28;20585;-71
2021/12/04 03:23:12;;;;;;;0.60;0.40;;;4.20;99.90;;;;;;5035935;28;20832;-72
2021/12/04 03:25:38;;;;;;;0.60;0.40;;;4.20;99.90;;;;;;5035587;28;20414;-72
2021/12/04 03:28:06;;;;;;;0.60;0.50;;;4.20;99.90;;;;;;5035121;28;20973;-71
2021/12/04 03:30:41;;;;;;;0.70;0.40;;;4.20;99.90;;;;;;5035615;28;20183;-72
2021/12/04 03:41:02;;;;;;;0.60;0.40;;;4.10;99.90;;;;;;5035696;28;20202;-71
2021/12/04 03:43:29;;;;;;;0.70;0.60;;;4.10;99.90;;;;;;5034991;28;20425;-71
2021/12/04 03:46:01;;;;;;;0.60;0.50;;;4.00;99.90;;;;;;5033735;28;20449;-71
2021/12/04 03:49:13;;;;;;;0.70;0.60;;;4.00;99.90;;;;;;5034921;28;20454;-71
2021/12/04 03:51:13;;;;;;;0.67;0.40;;;3.90;99.90;;;;;;5024094;28;20444;-71
2021/12/04 03:53:39;;;;;;;0.60;0.40;;;3.90;99.90;;;;;;5035230;28;20414;-71
2021/12/04 03:56:05;;;;;;;0.60;0.40;;;3.90;99.90;;;;;;5034290;28;20211;-72
2021/12/04 03:58:31;;;;;;;0.70;0.50;;;3.90;99.90;;;;;;5035274;28;20634;-72
2021/12/04 04:00:57;;;;;;;0.70;0.50;;;3.80;99.90;;;;;;5034604;28;20487;-71
2021/12/04 04:03:25;;;;;;;0.60;0.40;;;3.90;99.90;;;;;;5034943;28;20179;-71
2021/12/04 04:05:50;;;;;;;0.60;0.50;;;3.90;99.90;;;;;;5034582;28;20403;-71
2021/12/04 04:08:16;;;;;;;0.63;0.47;;;3.90;99.90;;;;;;5034507;28;20973;-71
2021/12/04 04:10:43;;;;;;;0.83;0.83;;;3.90;99.90;;;;;;5033444;28;20667;-71
2021/12/04 04:13:11;;;;;;;0.60;0.40;;;3.90;99.90;;;;;;5033009;28;20452;-72
2021/12/04 04:15:37;;;;;;;0.67;0.50;;;3.90;99.90;;;;;;5034191;28;20402;-71
2021/12/04 04:18:04;;;;;;;0.60;0.50;;;3.90;99.90;;;;;;5033130;28;20436;-71
2021/12/04 04:20:30;;;;;;;1.00;0.80;;;3.90;99.90;;;;;;5033534;28;20954;-71
2021/12/04 04:22:55;;;;;;;0.60;0.40;;;3.90;99.90;;;;;;5034248;28;20434;-71
2021/12/04 04:25:21;;;;;;;0.60;0.50;;;3.90;99.90;;;;;;5033015;28;20210;-70
2021/12/04 04:27:46;;;;;;;0.70;0.60;;;3.90;99.90;;;;;;5034013;28;20718;-71
2021/12/04 04:30:14;;;;;;;0.70;0.50;;;3.90;99.90;;;;;;5032957;28;20175;-71
2021/12/04 04:32:41;;;;;;;0.60;0.50;;;4.00;99.90;;;;;;5034070;28;20160;-70
2021/12/04 04:35:10;;;;;;;0.60;0.40;;;4.00;99.90;;;;;;5034448;28;20413;-71
2021/12/04 04:37:48;;;;;;;0.60;0.50;;;4.00;99.90;;;;;;5032683;28;20440;-71
2021/12/04 05:15:34;;;;;;;0.70;0.50;;;4.00;99.90;;;;;;5033529;28;20395;-71
2021/12/04 05:18:13;;;;;;;0.70;0.50;;;4.00;99.90;;;;;;5033649;28;20406;-72
2021/12/04 05:20:39;;;;;;;0.60;0.50;;;3.90;99.90;;;;;;5033590;28;20965;-71
2021/12/04 05:23:08;;;;;;;0.60;0.40;;;4.00;99.90;;;;;;5034486;28;20878;-72
2021/12/04 05:25:36;;;;;;;0.60;0.40;;;4.00;99.90;;;;;;5034183;28;20414;-72
2021/12/04 05:28:06;;;;;;;0.60;0.40;;;3.90;99.90;;;;;;5049221;28;20458;-72
2021/12/04 05:30:33;;;;;;;0.60;0.50;;;3.90;99.90;;;;;;5033705;28;20426;-72
2021/12/04 05:32:58;;;;;;;0.60;0.50;;;4.00;99.90;;;;;;5035469;28;20445;-72
2021/12/04 05:35:24;;;;;;;0.60;0.40;;;3.90;99.90;;;;;;5037563;28;20445;-71
2021/12/04 05:37:49;;;;;;;0.60;0.40;;;3.90;99.90;;;;;;5037371;28;20167;-72
2021/12/04 05:40:16;;;;;;;0.60;0.40;;;3.90;99.90;;;;;;5036114;28;20541;-72
2021/12/04 05:42:42;;;;;;;1.73;1.27;;;3.90;99.90;;;;;;5037725;28;20175;-71
2021/12/04 05:45:16;;;;;;;0.80;0.63;;;4.00;99.90;;;;;;5037192;28;20413;-72
2021/12/04 05:47:51;;;;;;;0.60;0.40;;;4.00;99.90;;;;;;5037215;28;20476;-71
2021/12/04 05:53:41;;;;;;;0.60;0.40;;;4.00;99.90;;;;;;5037357;28;20402;-72
2021/12/04 05:55:51;;;;;;;0.60;0.40;;;4.00;99.90;;;;;;5036645;28;20433;-72
2021/12/04 05:58:16;;;;;;;0.60;0.43;;;4.00;99.90;;;;;;5069439;28;20463;-72
2021/12/04 06:00:42;;;;;;;0.60;0.40;;;4.00;99.90;;;;;;5037391;28;20430;-72
2021/12/04 06:03:07;;;;;;;2.63;0.90;;;4.00;99.90;;;;;;5037281;28;20175;-72
2021/12/04 06:05:33;;;;;;;0.70;0.70;;;4.00;99.90;;;;;;5069100;28;20210;-72
2021/12/04 06:07:58;;;;;;;0.60;0.50;;;4.10;99.90;;;;;;5036969;28;20200;-72
2021/12/04 06:10:24;;;;;;;0.60;0.47;;;4.00;99.90;;;;;;5037195;28;20184;-72
2021/12/04 06:12:50;;;;;;;1.23;1.13;;;4.10;99.90;;;;;;5036990;28;20167;-71
2021/12/04 06:15:15;;;;;;;0.70;0.50;;;4.10;99.90;;;;;;5036356;28;20183;-72
2021/12/04 06:17:41;;;;;;;0.70;0.60;;;4.00;99.90;;;;;;5037391;28;20163;-72
2021/12/04 06:22:51;;;;;;;0.60;0.50;;;4.10;99.90;;;;;;5037140;28;20537;-72
2021/12/04 06:25:25;;;;;;;1.27;1.17;;;4.00;99.90;;;;;;5036291;28;20418;-72
2021/12/04 06:27:51;;;;;;;0.60;0.50;;;4.00;99.90;;;;;;5037076;28;20195;-71
2021/12/04 06:30:19;;;;;;;0.60;0.50;;;4.00;99.90;;;;;;5036621;28;20403;-72
2021/12/04 06:32:48;;;;;;;0.60;0.50;;;4.00;99.90;;;;;;5038286;28;20411;-71
2021/12/04 06:35:14;;;;;;;0.60;0.50;;;4.00;99.90;;;;;;5036416;28;20406;-72
2021/12/04 06:37:40;;;;;;;0.70;0.50;;;4.10;99.90;;;;;;5035604;28;20406;-71
2021/12/04 06:40:08;;;;;;;0.60;0.40;;;4.00;99.90;;;;;;5036316;28;20416;-71
2021/12/04 06:42:33;;;;;;;0.60;0.50;;;4.00;99.90;;;;;;5036654;28;20221;-71
2021/12/04 06:44:59;;;;;;;0.60;0.50;;;4.10;99.90;;;;;;5035444;28;20476;-71
2021/12/04 06:47:24;;;;;;;0.60;0.40;;;4.10;99.90;;;;;;5036657;28;20283;-71
2021/12/04 06:49:54;;;;;;;0.60;0.40;;;4.10;99.90;;;;;;5052136;28;20178;-71
2021/12/04 06:52:23;;;;;;;0.60;0.40;;;4.10;99.90;;;;;;5036578;28;20207;-72
2021/12/04 06:54:54;;;;;;;0.67;0.50;;;4.10;99.90;;;;;;5036544;28;20779;-71
2021/12/04 06:57:21;;;;;;;0.60;0.47;;;4.10;99.90;;;;;;5037165;28;20411;-72
2021/12/04 06:59:48;;;;;;;0.60;0.50;;;4.10;99.90;;;;;;5036985;28;20773;-71
2021/12/04 07:02:14;;;;;;;0.60;0.50;;;4.10;99.90;;;;;;5036757;28;20836;-71
2021/12/04 07:04:41;;;;;;;1.40;0.87;;;4.00;99.90;;;;;;5068521;28;20488;-71
2021/12/04 07:07:08;;;;;;;0.60;0.40;;;4.00;99.90;;;;;;5035691;28;20187;-71
2021/12/04 07:09:36;;;;;;;0.60;0.50;;;4.10;99.90;;;;;;5035674;28;20474;-71
2021/12/04 07:12:02;;;;;;;0.60;0.50;;;4.10;99.90;;;;;;5036839;28;20939;-71
2021/12/04 07:14:29;;;;;;;0.60;0.50;;;4.10;99.90;;;;;;5034610;28;20888;-71
2021/12/04 07:16:55;;;;;;;0.60;0.40;;;4.10;99.90;;;;;;5033705;28;20410;-71
2021/12/04 07:19:21;;;;;;;0.70;0.67;;;4.10;99.90;;;;;;5033980;28;20488;-72
2021/12/04 07:21:47;;;;;;;0.60;0.50;;;4.10;99.90;;;;;;5033778;28;20832;-71
2021/12/04 07:24:13;;;;;;;0.60;0.40;;;4.10;99.90;;;;;;5033811;28;20217;-71
2021/12/04 07:26:38;;;;;;;0.63;0.50;;;4.10;99.90;;;;;;5033342;28;20592;-71
2021/12/04 07:29:04;;;;;;;0.60;0.40;;;4.20;99.90;;;;;;5034164;28;20450;-72
2021/12/04 07:31:30;;;;;;;0.60;0.40;;;4.20;99.90;;;;;;5034275;28;20194;-71
2021/12/04 07:33:56;;;;;;;0.63;0.47;;;4.10;99.90;;;;;;5037558;28;20402;-71
2021/12/04 07:36:23;;;;;;;0.60;0.40;;;4.10;99.90;;;;;;5036468;28;20952;-71
2021/12/04 07:38:49;;;;;;;0.60;0.40;;;4.20;99.90;;;;;;5033889;28;20160;-71
2021/12/04 07:41:16;;;;;;;0.60;0.40;;;4.10;99.90;;;;;;5032286;28;20438;-71
2021/12/04 07:43:41;;;;;;;1.40;0.70;;;4.20;99.90;;;;;;5033445;28;20771;-71
2021/12/04 07:46:07;;;;;;;1.73;1.47;;;4.20;99.90;;;;;;5033307;28;20405;-71
2021/12/04 07:48:33;;;;;;;0.60;0.40;;;4.20;99.90;;;;;;5033290;28;20632;-71
2021/12/04 07:51:01;;;;;;;0.60;0.40;;;4.20;99.90;;;;;;5033180;28;20191;-74
2021/12/04 07:53:27;;;;;;;0.60;0.40;;;4.20;99.90;;;;;;5033171;28;20164;-72
2021/12/04 07:55:53;;;;;;;0.60;0.40;;;4.20;99.90;;;;;;5032922;28;20420;-71
2021/12/04 07:58:18;;;;;;;0.60;0.50;;;4.10;99.90;;;;;;5034090;28;20493;-71
2021/12/04 08:00:44;;;;;;;0.60;0.43;;;4.10;99.90;;;;;;5035283;28;20273;-71
2021/12/04 08:03:10;;;;;;;0.60;0.50;;;4.10;99.90;;;;;;5033908;28;20182;-72
2021/12/04 08:05:35;;;;;;;0.70;0.67;;;4.20;99.90;;;;;;5032656;28;20163;-72
2021/12/04 08:08:02;;;;;;;0.60;0.40;;;4.10;99.90;;;;;;5032985;28;20454;-70
2021/12/04 08:10:28;;;;;;;0.60;0.47;;;4.20;99.90;;;;;;5032974;28;20237;-70
2021/12/04 08:12:54;;;;;;;0.60;0.50;;;4.20;99.90;;;;;;5034014;28;20441;-71
2021/12/04 08:15:21;;;;;;;0.60;0.50;;;4.20;99.90;;;;;;5035494;28;20920;-71
2021/12/04 08:17:47;;;;;;;0.67;0.50;;;4.20;99.90;;;;;;5067720;28;20174;-71
2021/12/04 08:20:14;;;;;;;0.60;0.40;;;4.20;99.90;;;;;;5034114;28;20428;-70
2021/12/04 08:22:40;;;;;;;0.60;0.50;;;4.20;99.90;;;;;;5032704;28;20414;-71
2021/12/04 08:25:07;;;;;;;0.70;0.60;;;4.20;99.90;;;;;;5032404;28;20830;-71
2021/12/04 08:27:33;;;;;;;0.70;0.60;;;4.30;99.90;;;;;;5032479;28;20504;-71
2021/12/04 08:29:59;;;;;;;0.60;0.50;;;4.30;99.90;;;;;;5033654;28;20414;-71
2021/12/04 08:32:24;;;;;;;0.70;0.50;;;4.20;99.90;;;;;;5067480;28;20278;-70
2021/12/04 08:34:51;;;;;;;0.60;0.50;;;4.20;99.90;;;;;;5035696;28;20167;-71
2021/12/04 08:37:18;;;;;;;0.60;0.50;;;4.20;99.90;;;;;;5036367;28;20199;-72
2021/12/04 08:39:43;;;;;;;2.80;1.00;;;4.30;99.90;;;;;;5033949;28;20440;-70
2021/12/04 08:42:09;;;;;;;0.60;0.40;;;4.40;99.90;;;;;;5034245;28;20509;-71
2021/12/04 08:44:37;;;;;;;0.60;0.50;;;4.30;99.90;;;;;;5066402;28;20203;-71
2021/12/04 08:47:03;;;;;;;0.60;0.50;;;4.30;99.90;;;;;;5034227;28;20172;-71
2021/12/04 08:49:31;;;;;;;0.60;0.47;;;4.40;99.90;;;;;;5032396;28;20764;-70
2021/12/04 08:51:57;;;;;;;2.70;2.53;;;4.50;99.90;;;;;;5032159;28;20225;-71
2021/12/04 08:54:22;;;;;;;1.13;0.70;;;4.40;99.90;;;;;;5032222;28;20417;-71
2021/12/04 08:56:48;;;;;;;1.47;0.67;;;4.50;99.90;;;;;;5031864;28;20188;-71
2021/12/04 08:59:13;;;;;;;0.70;0.60;;;4.50;99.90;;;;;;5032426;28;20269;-71
2021/12/04 09:01:42;;;;;;;0.80;0.80;;;4.50;99.90;;;;;;5032212;28;20194;-71
2021/12/04 09:04:14;;;;;;;1.17;1.17;;;4.60;99.90;;;;;;5032264;28;20172;-71
2021/12/04 09:06:41;;;;;;;0.60;0.40;;;4.60;99.90;;;;;;5031469;28;20406;-71
2021/12/04 09:09:08;;;;;;;0.60;0.50;;;4.60;99.90;;;;;;5031825;28;20831;-71
2021/12/04 09:11:42;;;;;;;0.60;0.50;;;4.60;99.90;;;;;;5032040;28;20457;-71
2021/12/04 09:14:08;;;;;;;0.60;0.40;;;4.70;99.90;;;;;;5032156;28;20489;-70
2021/12/04 09:16:34;;;;;;;0.70;0.57;;;4.80;99.90;;;;;;5031852;28;20407;-71
2021/12/04 09:19:00;;;;;;;0.63;0.50;;;4.90;99.90;;;;;;5031950;28;20825;-70
2021/12/04 09:21:27;;;;;;;0.70;0.50;;;5.00;99.90;;;;;;5047179;28;20264;-71
2021/12/04 09:24:04;;;;;;;0.60;0.50;;;5.10;99.90;;;;;;5032042;28;20171;-71
2021/12/04 09:26:45;;;;;;;0.60;0.50;;;5.10;99.90;;;;;;5032105;28;20410;-71
2021/12/04 09:29:27;;;;;;;0.70;0.60;;;5.20;99.90;;;;;;5032629;28;20450;-71
2021/12/04 10:34:12;;;;;;;0.70;0.50;;;10.20;99.90;;;;;;5034824;28;20482;-70
2021/12/04 10:36:40;;;;;;;0.87;0.83;;;9.10;99.90;;;;;;5034460;28;20430;-71
2021/12/04 10:39:08;;;;;;;1.93;1.30;;;8.80;99.90;;;;;;5034661;28;20175;-71
2021/12/04 10:41:40;;;;;;;0.93;0.83;;;8.80;99.90;;;;;;5034735;28;20430;-71
2021/12/04 10:44:21;;;;;;;0.80;0.60;;;8.80;99.90;;;;;;5034687;28;20444;-70
2021/12/04 10:46:59;;;;;;;0.70;0.50;;;8.70;99.90;;;;;;5034332;28;20438;-71
2021/12/04 11:04:52;;;;;;;0.80;0.70;;;6.90;99.90;;;;;;5040634;28;20911;-71
2021/12/04 11:07:38;;;;;;;1.10;0.70;;;6.80;99.90;;;;;;5053713;28;20919;-70
2021/12/04 11:42:52;;;;;;;1.00;0.77;;;6.10;99.90;;;;;;5053503;28;20405;-70
2021/12/04 11:45:28;;;;;;;1.67;0.77;;;6.00;99.90;;;;;;5053193;28;20432;-70
2021/12/04 11:48:03;;;;;;;0.70;0.50;;;6.20;99.90;;;;;;5053158;28;20452;-70
2021/12/04 11:50:33;;;;;;;0.70;0.50;;;6.00;99.90;;;;;;5053189;28;20834;-71
2021/12/04 11:53:19;;;;;;;0.70;0.50;;;6.10;99.90;;;;;;5053215;28;20437;-70
2021/12/04 11:55:46;;;;;;;0.70;0.50;;;6.00;99.90;;;;;;5052331;28;20516;-71
2021/12/04 11:58:18;;;;;;;0.70;0.50;;;6.00;99.90;;;;;;5053101;28;20421;-71
2021/12/04 12:00:44;;;;;;;0.70;0.50;;;5.90;99.90;;;;;;5052869;28;20512;-71
2021/12/04 12:03:11;;;;;;;0.70;0.50;;;6.00;99.90;;;;;;5052807;28;20492;-71
2021/12/04 12:05:56;;;;;;;0.70;0.50;;;6.00;99.90;;;;;;5052684;28;20181;-71
2021/12/04 12:08:23;;;;;;;0.70;0.63;;;6.20;99.90;;;;;;5052827;28;21022;-71
2021/12/04 12:10:52;;;;;;;1.27;0.83;;;6.20;99.90;;;;;;5052691;28;20457;-71
2021/12/04 12:13:36;;;;;;;0.70;0.50;;;6.30;99.90;;;;;;5052709;28;20475;-71
2021/12/04 12:16:09;;;;;;;0.70;0.50;;;6.30;99.90;;;;;;5052420;28;20398;-71
2021/12/04 12:18:50;;;;;;;1.23;0.70;;;6.50;99.90;;;;;;5052658;28;20440;-71
2021/12/04 12:21:19;;;;;;;0.70;0.40;;;6.30;99.90;;;;;;5052571;28;20428;-72
2021/12/04 12:38:53;;;;;;;0.70;0.50;;;6.20;99.90;;;;;;5055927;28;20396;-72
2021/12/04 12:41:21;;;;;;;0.70;0.50;;;6.30;99.90;;;;;;5054998;28;20462;-72
2021/12/04 12:44:02;;;;;;;0.70;0.50;;;6.40;99.90;;;;;;5047064;28;20414;-72
2021/12/04 12:46:44;;;;;;;0.70;0.50;;;6.60;99.90;;;;;;5039808;28;20421;-73
2021/12/04 12:49:23;;;;;;;0.70;0.60;;;6.50;99.90;;;;;;5012994;28;20545;-72
2021/12/04 12:51:57;;;;;;;0.70;0.40;;;6.50;99.90;;;;;;5028109;28;20431;-72
2021/12/04 12:54:32;;;;;;;1.67;1.33;;;6.20;99.90;;;;;;5012494;28;20396;-72
2021/12/04 12:57:12;;;;;;;0.70;0.50;;;6.10;99.90;;;;;;5012119;28;20568;-72
2021/12/04 13:13:33;;;;;;;2.83;2.63;;;6.00;99.90;;;;;;5012397;28;20426;-72
2021/12/04 13:16:05;;;;;;;0.70;0.50;;;6.00;99.90;;;;;;5027223;28;20473;-72
2021/12/04 13:18:33;;;;;;;0.70;0.50;;;6.10;99.90;;;;;;5012562;28;20407;-72
2021/12/04 13:21:09;;;;;;;0.63;0.50;;;6.00;99.90;;;;;;5012822;28;20438;-72
2021/12/04 13:23:36;;;;;;;0.70;0.47;;;6.10;99.90;;;;;;5013106;28;20445;-71
2021/12/04 13:26:11;;;;;;;0.70;0.50;;;6.10;99.90;;;;;;5012221;28;20808;-71
2021/12/04 13:28:41;;;;;;;4.13;1.23;;;6.10;99.90;;;;;;5012565;28;20450;-72
2021/12/04 13:31:07;;;;;;;0.70;0.50;;;6.10;99.90;;;;;;5012420;28;20423;-71
2021/12/04 13:33:37;;;;;;;0.70;0.50;;;6.00;99.90;;;;;;5012562;28;20973;-72
2021/12/04 13:36:23;;;;;;;0.70;0.60;;;5.90;99.90;;;;;;5012702;28;20256;-72
2021/12/04 13:39:09;;;;;;;0.70;0.50;;;5.90;99.90;;;;;;5012393;28;20782;-72
2021/12/04 13:41:36;;;;;;;0.70;0.50;;;5.90;99.90;;;;;;5012692;28;20434;-71
2021/12/04 13:44:05;;;;;;;3.10;0.90;;;5.90;99.90;;;;;;5012656;28;20407;-71
2021/12/04 13:46:56;;;;;;;0.80;0.80;;;5.90;99.90;;;;;;5012229;28;20411;-71
2021/12/04 13:49:31;;;;;;;0.80;0.70;;;5.90;99.90;;;;;;5012493;28;20455;-71
2021/12/04 13:52:02;;;;;;;0.70;0.47;;;5.90;99.90;;;;;;5012452;28;20473;-71
2021/12/04 13:54:30;;;;;;;0.70;0.50;;;5.90;99.90;;;;;;5014851;28;20923;-71
2021/12/04 13:56:56;;;;;;;5.53;0.93;;;5.90;99.90;;;;;;5015758;28;20419;-71
2021/12/04 13:59:24;;;;;;;0.70;0.60;;;5.90;99.90;;;;;;5014837;28;20414;-71
2021/12/04 14:01:50;;;;;;;0.70;0.50;;;5.90;99.90;;;;;;5015722;28;20696;-71
2021/12/04 14:04:16;;;;;;;0.70;0.50;;;5.90;99.90;;;;;;5014654;28;20422;-71
2021/12/04 14:06:52;;;;;;;0.70;0.50;;;5.90;99.90;;;;;;5015596;28;20407;-71
2021/12/04 14:09:18;;;;;;;1.50;1.40;;;5.90;99.90;;;;;;5016024;28;20450;-71
2021/12/04 14:11:45;;;;;;;3.40;2.63;;;5.80;99.90;;;;;;5016138;28;20458;-71
2021/12/04 14:14:13;;;;;;;0.70;0.50;;;6.00;99.90;;;;;;5014745;28;20888;-71
2021/12/04 14:16:41;;;;;;;0.67;0.50;;;6.00;99.90;;;;;;5015733;28;20490;-72
2021/12/04 14:19:15;;;;;;;0.70;0.50;;;6.00;99.90;;;;;;5016107;28;20789;-71
2021/12/04 14:21:40;;;;;;;0.70;0.57;;;5.90;99.90;;;;;;5016699;28;20427;-71
2021/12/04 14:24:06;;;;;;;0.70;0.50;;;5.90;99.90;;;;;;5017198;28;20403;-72
2021/12/04 14:26:32;;;;;;;0.70;0.43;;;5.90;99.90;;;;;;5015197;28;20172;-71
2021/12/04 14:28:57;;;;;;;0.70;0.50;;;5.90;99.90;;;;;;5014759;28;20239;-71
2021/12/04 14:31:23;;;;;;;0.70;0.50;;;5.90;99.90;;;;;;5016560;28;20427;-71
2021/12/04 14:33:49;;;;;;;0.77;0.70;;;6.00;99.90;;;;;;5014774;28;20176;-72
2021/12/04 14:36:19;;;;;;;0.77;0.73;;;6.10;99.90;;;;;;5015837;28;20406;-71
2021/12/04 14:38:47;;;;;;;0.80;0.80;;;6.10;99.90;;;;;;5015753;28;20657;-71
2021/12/04 14:41:14;;;;;;;0.70;0.40;;;6.10;99.90;;;;;;5015860;28;20959;-71
2021/12/04 14:43:40;;;;;;;1.23;1.07;;;6.10;99.90;;;;;;5015635;28;20411;-72
2021/12/04 14:46:12;;;;;;;0.70;0.50;;;6.20;99.90;;;;;;5015525;28;20825;-71
2021/12/04 14:48:48;;;;;;;1.63;1.53;;;6.30;99.90;;;;;;5015797;28;20447;-71
2021/12/04 14:51:17;;;;;;;0.70;0.50;;;6.40;99.90;;;;;;5015812;28;20438;-72
2021/12/04 14:53:53;;;;;;;0.80;0.80;;;6.40;99.90;;;;;;5015594;28;20978;-71
2021/12/04 14:56:20;;;;;;;0.70;0.50;;;6.40;99.90;;;;;;5015703;28;20549;-71
2021/12/04 14:58:47;;;;;;;1.03;0.93;;;6.40;99.90;;;;;;5015785;28;20885;-71
2021/12/04 15:01:15;;;;;;;0.70;0.50;;;6.50;99.90;;;;;;5015494;28;20423;-71
2021/12/04 15:03:50;;;;;;;0.70;0.50;;;6.50;99.90;;;;;;5016105;28;20425;-71
2021/12/04 15:06:17;;;;;;;0.70;0.50;;;6.50;99.90;;;;;;5014565;28;20417;-72
2021/12/04 15:08:46;;;;;;;0.70;0.50;;;6.50;99.90;;;;;;5014117;28;20991;-71
2021/12/04 15:11:16;;;;;;;0.70;0.50;;;6.40;99.90;;;;;;5015716;28;20462;-71
2021/12/04 15:14:02;;;;;;;0.70;0.50;;;6.40;99.90;;;;;;5015852;28;20400;-72
2021/12/04 15:16:50;;;;;;;0.70;0.50;;;6.40;99.90;;;;;;5014787;28;20946;-72
2021/12/04 15:19:27;;;;;;;0.70;0.40;;;6.50;99.90;;;;;;5015778;28;20423;-72
2021/12/04 15:21:59;;;;;;;2.50;1.23;;;6.40;99.90;;;;;;5014623;28;20469;-72
2021/12/04 15:24:27;;;;;;;0.70;0.40;;;6.50;99.90;;;;;;5014627;28;20419;-72
2021/12/04 15:26:57;;;;;;;0.90;0.80;;;6.40;99.90;;;;;;5030772;28;20473;-71
2021/12/04 15:29:28;;;;;;;0.70;0.60;;;6.30;99.90;;;;;;5015239;28;20461;-72
2021/12/04 15:31:57;;;;;;;0.70;0.40;;;6.20;99.90;;;;;;5015092;28;20434;-72
2021/12/04 15:34:45;;;;;;;0.70;0.50;;;6.20;99.90;;;;;;5015224;28;20407;-72
2021/12/04 15:37:12;;;;;;;0.70;0.50;;;6.20;99.90;;;;;;5015157;28;20407;-71
2021/12/04 15:39:43;;;;;;;1.00;0.70;;;6.20;99.90;;;;;;5014430;28;20465;-72
2021/12/04 15:45:02;;;;;;;0.70;0.60;;;6.20;99.90;;;;;;5015411;28;20403;-72
2021/12/04 15:50:26;;;;;;;0.70;0.50;;;6.10;99.90;;;;;;5015230;28;20403;-72
2021/12/04 15:55:41;;;;;;;0.70;0.50;;;6.00;99.90;;;;;;5014938;28;20510;-71
2021/12/04 15:58:16;;;;;;;0.70;0.47;;;6.00;99.90;;;;;;5047063;28;20916;-70
2021/12/04 16:00:47;;;;;;;0.70;0.40;;;6.00;99.90;;;;;;5013789;28;20443;-70
2021/12/04 16:03:16;;;;;;;0.70;0.50;;;6.00;99.90;;;;;;5014803;28;20775;-70
2021/12/04 16:05:49;;;;;;;0.70;0.40;;;6.00;99.90;;;;;;5014620;28;20442;-70
2021/12/04 16:08:17;;;;;;;0.70;0.50;;;6.00;99.90;;;;;;5014725;28;20676;-70
2021/12/04 16:10:46;;;;;;;0.60;0.40;;;5.90;99.90;;;;;;5014692;28;20437;-70
2021/12/04 16:13:20;;;;;;;0.70;0.60;;;5.90;99.90;;;;;;5014921;28;20404;-70
2021/12/04 16:15:46;;;;;;;1.77;0.80;;;5.90;99.90;;;;;;5012517;28;20411;-69
2021/12/04 16:18:14;;;;;;;0.70;0.50;;;5.90;99.90;;;;;;5012004;28;20823;-69
2021/12/04 16:20:40;;;;;;;0.60;0.40;;;5.90;99.90;;;;;;5012873;28;20674;-70
2021/12/04 16:23:06;;;;;;;0.70;0.50;;;5.90;99.90;;;;;;5012909;28;20497;-70
2021/12/04 16:25:38;;;;;;;0.60;0.40;;;5.90;99.90;;;;;;5012724;28;20514;-70
2021/12/04 16:28:39;;;;;;;0.60;0.40;;;5.80;99.90;;;;;;5012999;28;20196;-70
2021/12/04 16:36:19;;;;;;;1.00;0.73;;;5.80;99.90;;;;;;5012613;28;20430;-71
2021/12/04 16:38:46;;;;;;;1.33;1.23;;;5.90;99.90;;;;;;5012769;28;20415;-70